createdAt,value
2022-12-07T00:01:45.267Z,102002.56
2022-12-07T00:04:14.323Z,102006.13
2022-12-07T00:06:43.456Z,102005.28
2022-12-07T00:09:17.638Z,102001.78
2022-12-07T00:11:45.282Z,102003.63
2022-12-07T00:14:14.321Z,102016.69
2022-12-07T00:16:40.965Z,102003.63
2022-12-07T00:19:10.344Z,102002.81
2022-12-07T00:21:37.285Z,102007.22
2022-12-07T00:24:05.615Z,101996.81
2022-12-07T00:26:34.927Z,101991.59
2022-12-07T00:29:04.944Z,101994.25
2022-12-07T00:31:36.078Z,101996.88
2022-12-07T00:34:02.636Z,101984.69
2022-12-07T00:36:29.303Z,101983.84
2022-12-07T00:38:58.265Z,101982.13
2022-12-07T00:41:26.085Z,101987.41
2022-12-07T00:43:52.903Z,101984.78
2022-12-07T00:46:20.575Z,101980.50
2022-12-07T00:48:48.089Z,101975.28
2022-12-07T00:51:19.853Z,101979.81
2022-12-07T00:53:46.773Z,101975.47
2022-12-07T00:56:15.615Z,101977.25
2022-12-07T00:58:42.220Z,101976.38
2022-12-07T01:01:10.637Z,101972.03
2022-12-07T01:03:38.074Z,101972.03
2022-12-07T01:06:05.019Z,101971.19
2022-12-07T01:08:31.886Z,101974.69
2022-12-07T01:11:00.399Z,101970.34
2022-12-07T01:13:26.879Z,101977.41
2022-12-07T01:15:58.763Z,101976.69
2022-12-07T01:18:25.195Z,101974.06
2022-12-07T01:21:21.907Z,101976.69
2022-12-07T01:23:49.048Z,101976.72
2022-12-07T01:26:18.751Z,101977.72
2022-12-07T01:28:46.394Z,101971.75
2022-12-07T01:31:16.345Z,101980.44
2022-12-07T01:33:47.965Z,101981.28
2022-12-07T01:36:18.002Z,101974.38
2022-12-07T01:38:46.228Z,101984.84
2022-12-07T01:41:13.432Z,101981.41
2022-12-07T01:44:20.046Z,101980.53
2022-12-07T01:47:01.052Z,101976.19
2022-12-07T01:49:33.330Z,101973.59
2022-12-07T01:52:25.626Z,101981.41
2022-12-07T01:54:56.604Z,101979.69
2022-12-07T01:57:23.618Z,101976.25
2022-12-07T01:59:53.025Z,101971.91
2022-12-07T02:02:24.616Z,101979.78
2022-12-07T02:04:54.211Z,101979.84
2022-12-07T02:07:22.787Z,101981.66
2022-12-07T02:09:49.214Z,101982.59
2022-12-07T02:12:16.013Z,101984.53
2022-12-07T02:14:42.737Z,101974.19
2022-12-07T02:17:15.885Z,101964.66
2022-12-07T02:20:13.010Z,101970.69
2022-12-07T02:23:13.678Z,101976.00
2022-12-07T02:25:55.175Z,101974.38
2022-12-07T02:28:36.032Z,101969.19
2022-12-07T02:31:19.177Z,101970.09
2022-12-07T02:33:52.824Z,101980.53
2022-12-07T02:36:33.614Z,101970.91
2022-12-07T02:39:12.426Z,101962.25
2022-12-07T02:41:44.231Z,101957.00
2022-12-07T02:44:15.256Z,101964.88
2022-12-07T02:46:45.796Z,101961.38
2022-12-07T02:49:38.469Z,101960.47
2022-12-07T02:52:05.590Z,101959.59
2022-12-07T02:54:32.019Z,101963.09
2022-12-07T02:56:58.885Z,101961.38
2022-12-07T02:59:30.634Z,101962.25
2022-12-07T03:02:18.741Z,101965.78
2022-12-07T03:05:00.437Z,101964.94
2022-12-07T03:07:38.992Z,101970.25
2022-12-07T03:10:12.318Z,101975.69
2022-12-07T03:13:03.467Z,101965.31
2022-12-07T03:15:42.657Z,101958.25
2022-12-07T03:18:12.932Z,101961.69
2022-12-07T03:20:41.990Z,101961.75
2022-12-07T03:23:11.080Z,101962.63
2022-12-07T03:25:46.317Z,101955.72
2022-12-07T03:28:16.720Z,101951.44
2022-12-07T03:30:50.112Z,101961.00
2022-12-07T03:33:33.060Z,101956.59
2022-12-07T03:36:08.593Z,101954.78
2022-12-07T03:38:43.662Z,101956.53
2022-12-07T03:41:15.825Z,101952.19
2022-12-07T03:43:42.794Z,101953.88
2022-12-07T03:46:18.575Z,101944.28
2022-12-07T03:49:23.674Z,101941.63
2022-12-07T03:52:07.119Z,101944.22
2022-12-07T03:54:50.482Z,101944.22
2022-12-07T03:57:18.451Z,101949.44
2022-12-07T03:59:48.513Z,101954.69
2022-12-07T04:02:15.839Z,101951.28
2022-12-07T04:04:43.785Z,101944.28
2022-12-07T04:07:10.578Z,101950.38
2022-12-07T04:09:36.957Z,101935.56
2022-12-07T04:12:03.504Z,101936.47
2022-12-07T04:14:29.973Z,101936.47
2022-12-07T04:16:58.695Z,101932.97
2022-12-07T04:19:27.280Z,101931.25
2022-12-07T04:21:54.029Z,101927.81
2022-12-07T04:24:20.953Z,101933.91
2022-12-07T04:26:47.947Z,101930.50
2022-12-07T04:29:15.547Z,101935.72
2022-12-07T04:31:42.856Z,101933.91
2022-12-07T04:34:09.872Z,101938.28
2022-12-07T04:36:36.578Z,101937.44
2022-12-07T04:39:04.102Z,101939.22
2022-12-07T04:41:30.765Z,101929.59
2022-12-07T04:43:59.581Z,101931.31
2022-12-07T04:46:27.480Z,101932.28
2022-12-07T04:48:54.879Z,101940.28
2022-12-07T04:51:27.412Z,101936.84
2022-12-07T04:53:54.223Z,101929.03
2022-12-07T04:56:20.805Z,101934.38
2022-12-07T04:58:48.459Z,101929.25
2022-12-07T05:01:17.227Z,101923.97
2022-12-07T05:03:44.071Z,101921.38
2022-12-07T05:06:13.542Z,101918.72
2022-12-07T05:08:40.883Z,101920.44
2022-12-07T05:11:08.330Z,101922.13
2022-12-07T05:13:35.667Z,101912.50
2022-12-07T05:16:02.248Z,101911.63
2022-12-07T05:18:28.697Z,101918.56
2022-12-07T05:20:55.207Z,101920.34
2022-12-07T05:23:21.653Z,101908.13
2022-12-07T05:25:48.284Z,101913.31
2022-12-07T05:28:14.702Z,101913.34
2022-12-07T05:30:41.062Z,101911.69
2022-12-07T05:33:10.172Z,101910.84
2022-12-07T05:35:38.852Z,101916.91
2022-12-07T05:38:05.269Z,101908.13
2022-12-07T05:40:31.695Z,101908.13
2022-12-07T05:43:04.014Z,101916.81
2022-12-07T05:45:33.201Z,101911.53
2022-12-07T05:47:59.696Z,101925.47
2022-12-07T05:50:26.257Z,101918.53
2022-12-07T05:52:52.693Z,101922.91
2022-12-07T05:55:20.924Z,101917.69
2022-12-07T05:58:08.354Z,101921.09
2022-12-07T06:00:34.737Z,101918.44
2022-12-07T06:03:01.384Z,101917.50
2022-12-07T06:05:28.017Z,101923.47
2022-12-07T06:07:54.454Z,101919.06
2022-12-07T06:10:20.973Z,101919.03
2022-12-07T06:12:47.512Z,101921.59
2022-12-07T06:15:14.448Z,101924.19
2022-12-07T06:17:40.857Z,101923.25
2022-12-07T06:20:10.678Z,101922.38
2022-12-07T06:22:37.006Z,101926.72
2022-12-07T06:25:08.385Z,101923.22
2022-12-07T06:27:36.374Z,101928.47
2022-12-07T06:30:07.606Z,101915.38
2022-12-07T06:32:35.211Z,101927.56
2022-12-07T06:35:01.976Z,101930.13
2022-12-07T06:37:28.386Z,101922.19
2022-12-07T06:39:54.899Z,101925.63
2022-12-07T06:42:21.322Z,101923.88
2022-12-07T06:44:47.815Z,101928.25
2022-12-07T06:47:40.689Z,101927.31
2022-12-07T06:50:04.326Z,101921.16
2022-12-07T06:52:33.922Z,101924.59
2022-12-07T06:55:00.502Z,101927.16
2022-12-07T06:57:27.486Z,101928.06
2022-12-07T06:59:53.910Z,101925.38
2022-12-07T07:02:20.578Z,101924.50
2022-12-07T07:04:47.073Z,101921.84
2022-12-07T07:07:13.481Z,101926.13
2022-12-07T07:09:39.945Z,101925.25
2022-12-07T07:12:07.939Z,101922.63
2022-12-07T07:14:34.311Z,101922.63
2022-12-07T07:17:00.730Z,101918.25
2022-12-07T07:19:27.315Z,101925.25
2022-12-07T07:21:53.760Z,101928.75
2022-12-07T07:24:20.296Z,101928.75
2022-12-07T07:26:46.748Z,101931.34
2022-12-07T07:29:13.431Z,101929.47
2022-12-07T07:31:41.963Z,101929.56
2022-12-07T07:34:08.595Z,101922.69
2022-12-07T07:36:35.133Z,101921.94
2022-12-07T07:39:01.551Z,101922.03
2022-12-07T07:41:28.127Z,101928.25
2022-12-07T07:43:56.584Z,101927.50
2022-12-07T07:46:23.151Z,101932.84
2022-12-07T07:48:49.675Z,101936.41
2022-12-07T07:51:16.260Z,101930.41
2022-12-07T07:53:42.741Z,101928.78
2022-12-07T07:56:11.432Z,101933.22
2022-12-07T07:58:40.277Z,101934.19
2022-12-07T08:01:10.673Z,101927.31
2022-12-07T08:03:37.155Z,101936.09
2022-12-07T08:06:07.076Z,101937.94
2022-12-07T08:08:33.514Z,101944.09
2022-12-07T08:11:02.966Z,101938.06
2022-12-07T08:13:31.539Z,101935.50
2022-12-07T08:15:59.072Z,101943.41
2022-12-07T08:18:25.579Z,101938.28
2022-12-07T08:20:51.982Z,101947.91
2022-12-07T08:23:18.539Z,101947.13
2022-12-07T08:25:45.057Z,101952.44
2022-12-07T08:28:11.647Z,101949.03
2022-12-07T08:30:38.293Z,101943.84
2022-12-07T08:33:04.832Z,101953.56
2022-12-07T08:35:34.277Z,101941.41
2022-12-07T08:38:04.937Z,101945.75
2022-12-07T08:40:31.738Z,101948.44
2022-12-07T08:42:58.283Z,101944.94
2022-12-07T08:45:27.301Z,101949.31
2022-12-07T08:48:02.158Z,101950.19
2022-12-07T08:50:28.889Z,101945.88
2022-12-07T08:52:57.985Z,101947.63
2022-12-07T08:55:24.630Z,101943.34
2022-12-07T08:57:52.387Z,101941.69
2022-12-07T09:00:19.090Z,101946.91
2022-12-07T09:02:46.570Z,101940.97
2022-12-07T09:05:16.900Z,101945.31
2022-12-07T09:07:50.188Z,101941.81
2022-12-07T09:10:16.709Z,101951.41
2022-12-07T09:12:43.138Z,101948.00
2022-12-07T09:15:09.767Z,101948.00
2022-12-07T09:17:37.193Z,101939.28
2022-12-07T09:20:07.676Z,101939.25
2022-12-07T09:22:34.692Z,101942.03
2022-12-07T09:25:01.821Z,101944.66
2022-12-07T09:27:35.492Z,101957.75
2022-12-07T09:30:02.367Z,101953.44
2022-12-07T09:32:29.061Z,101963.06
2022-12-07T09:34:56.145Z,101964.00
2022-12-07T09:37:22.819Z,101956.22
2022-12-07T09:39:50.488Z,101955.34
2022-12-07T09:42:30.798Z,101951.84
2022-12-07T09:45:00.723Z,101946.63
2022-12-07T09:47:30.046Z,101951.00
2022-12-07T09:50:06.931Z,101943.22
2022-12-07T09:52:38.838Z,101946.59
2022-12-07T09:55:12.116Z,101953.56
2022-12-07T09:57:38.591Z,101942.19
2022-12-07T10:00:17.546Z,101945.59
2022-12-07T10:02:48.670Z,101941.25
2022-12-07T10:05:30.275Z,101936.97
2022-12-07T10:07:56.948Z,101927.38
2022-12-07T10:10:42.148Z,101931.75
2022-12-07T10:13:11.074Z,101929.94
2022-12-07T10:15:49.903Z,101935.16
2022-12-07T10:18:19.179Z,101922.03
2022-12-07T10:20:49.259Z,101916.75
2022-12-07T10:23:19.339Z,101921.00
2022-12-07T10:25:46.168Z,101917.56
2022-12-07T10:28:16.463Z,101909.69
2022-12-07T10:31:05.233Z,101913.19
2022-12-07T10:33:51.826Z,101907.97
2022-12-07T10:36:22.711Z,101913.19
2022-12-07T10:38:53.647Z,101909.66
2022-12-07T10:41:21.113Z,101898.28
2022-12-07T10:43:49.720Z,101905.19
2022-12-07T10:46:19.437Z,101897.28
2022-12-07T10:48:55.154Z,101903.25
2022-12-07T10:51:40.522Z,101890.13
2022-12-07T10:54:29.680Z,101891.66
2022-12-07T10:56:59.191Z,101884.59
2022-12-07T10:59:38.701Z,101886.28
2022-12-07T11:02:38.207Z,101887.16
2022-12-07T11:05:16.810Z,101886.28
2022-12-07T11:07:46.571Z,101881.00
2022-12-07T11:10:27.078Z,101885.34
2022-12-07T11:13:22.545Z,101880.13
2022-12-07T11:16:07.028Z,101876.69
2022-12-07T11:19:06.993Z,101875.72
2022-12-07T11:21:49.481Z,101872.13
2022-12-07T11:24:23.286Z,101873.94
2022-12-07T11:27:23.891Z,101872.13
2022-12-07T11:30:03.423Z,101866.72
2022-12-07T11:32:57.815Z,101864.94
2022-12-07T11:35:36.772Z,101867.53
2022-12-07T11:38:26.293Z,101862.91
2022-12-07T11:41:13.663Z,101859.38
2022-12-07T11:44:27.020Z,101853.16
2022-12-07T11:47:31.346Z,101850.38
2022-12-07T11:50:16.709Z,101835.44
2022-12-07T11:52:53.495Z,101841.34
2022-12-07T11:55:41.363Z,101839.34
2022-12-07T11:58:45.670Z,101837.31
2022-12-07T12:01:20.548Z,101837.16
2022-12-07T12:04:03.460Z,101824.91
2022-12-07T12:06:29.921Z,101833.28
2022-12-07T12:15:21.603Z,101806.63
2022-12-07T12:18:06.027Z,101809.78
2022-12-07T12:21:03.844Z,101808.19
2022-12-07T12:23:33.154Z,101811.69
2022-12-07T12:26:03.560Z,101818.34
2022-12-07T12:28:36.116Z,101812.34
2022-12-07T12:31:15.243Z,101804.63
2022-12-07T12:33:48.292Z,101799.22
2022-12-07T12:36:19.788Z,101788.69
2022-12-07T12:39:09.902Z,101791.09
2022-12-07T12:41:36.367Z,101790.38
2022-12-07T12:44:04.059Z,101791.25
2022-12-07T12:46:30.483Z,101784.88
2022-12-07T12:49:17.138Z,101782.06
2022-12-07T12:51:45.449Z,101777.00
2022-12-07T12:54:19.562Z,101778.78
2022-12-07T12:56:59.570Z,101782.31
2022-12-07T12:59:39.072Z,101776.16
2022-12-07T13:02:29.474Z,101778.72
2022-12-07T13:04:59.899Z,101784.03
2022-12-07T13:07:48.331Z,101779.56
2022-12-07T13:10:29.417Z,101766.34
2022-12-07T13:13:20.704Z,101772.22
2022-12-07T13:15:51.380Z,101766.00
2022-12-07T13:18:37.185Z,101761.56
2022-12-07T13:21:29.370Z,101764.91
2022-12-07T13:24:01.055Z,101753.53
2022-12-07T13:26:39.067Z,101749.97
2022-12-07T13:29:14.936Z,101753.38
2022-12-07T13:31:56.601Z,101753.16
2022-12-07T13:34:36.488Z,101744.25
2022-12-07T13:37:13.704Z,101742.31
2022-12-07T13:39:52.709Z,101732.78
2022-12-07T13:42:35.624Z,101732.78
2022-12-07T13:45:22.763Z,101729.16
2022-12-07T13:47:54.343Z,101723.03
2022-12-07T13:50:29.591Z,101724.69
2022-12-07T13:53:00.121Z,101718.50
2022-12-07T13:55:27.846Z,101722.00
2022-12-07T13:57:58.106Z,101721.19
2022-12-07T14:00:30.858Z,101718.56
2022-12-07T14:03:12.918Z,101718.47
2022-12-07T14:05:44.420Z,101716.66
2022-12-07T14:08:11.200Z,101714.91
2022-12-07T14:10:39.618Z,101713.13
2022-12-07T14:13:42.141Z,101711.31
2022-12-07T14:16:26.659Z,101699.97
2022-12-07T14:18:53.749Z,101701.97
2022-12-07T14:21:24.314Z,101701.06
2022-12-07T14:24:10.423Z,101693.09
2022-12-07T14:26:38.775Z,101695.81
2022-12-07T14:29:32.258Z,101691.34
2022-12-07T14:32:01.778Z,101680.81
2022-12-07T14:34:28.469Z,101681.59
2022-12-07T14:36:54.952Z,101691.13
2022-12-07T14:39:21.501Z,101687.66
2022-12-07T14:42:00.299Z,101682.41
2022-12-07T14:44:30.767Z,101680.75
2022-12-07T14:49:51.713Z,101675.38
2022-12-07T14:55:29.314Z,101671.25
2022-12-07T14:57:55.982Z,101679.09
2022-12-07T15:00:24.726Z,101671.25
2022-12-07T15:02:52.098Z,101675.59
2022-12-07T15:05:19.644Z,101678.19
2022-12-07T15:07:47.601Z,101674.69
2022-12-07T15:10:23.646Z,101681.44
2022-12-07T15:12:51.071Z,101683.16
2022-12-07T15:15:18.368Z,101691.97
2022-12-07T15:17:44.970Z,101680.00
2022-12-07T15:20:17.819Z,101688.03
2022-12-07T15:22:44.318Z,101683.84
2022-12-07T15:25:14.414Z,101668.06
2022-12-07T15:27:40.868Z,101674.97
2022-12-07T15:30:08.104Z,101674.06
2022-12-07T15:32:34.879Z,101671.47
2022-12-07T15:35:02.126Z,101668.91
2022-12-07T15:37:28.954Z,101666.28
2022-12-07T15:39:55.466Z,101668.84
2022-12-07T15:42:21.950Z,101662.84
2022-12-07T15:45:09.152Z,101661.97
2022-12-07T15:48:10.361Z,101662.00
2022-12-07T15:50:27.836Z,101650.75
2022-12-07T15:52:54.251Z,101648.13
2022-12-07T15:55:20.718Z,101647.34
2022-12-07T15:57:47.224Z,101643.00
2022-12-07T16:00:14.784Z,101642.19
2022-12-07T16:02:41.206Z,101637.91
2022-12-07T16:05:10.910Z,101637.97
2022-12-07T16:07:40.284Z,101638.88
2022-12-07T16:10:10.465Z,101639.81
2022-12-07T16:12:36.981Z,101637.28
2022-12-07T16:15:03.819Z,101632.19
2022-12-07T16:17:30.650Z,101633.97
2022-12-07T16:19:57.249Z,101621.81
2022-12-07T16:22:24.335Z,101612.28
2022-12-07T16:24:50.689Z,101620.16
2022-12-07T16:27:17.223Z,101610.66
2022-12-07T16:29:43.730Z,101618.56
2022-12-07T16:32:12.806Z,101621.22
2022-12-07T16:34:40.606Z,101623.03
2022-12-07T16:37:07.063Z,101614.41
2022-12-07T16:39:34.935Z,101610.91
2022-12-07T16:42:01.495Z,101611.03
2022-12-07T16:44:28.195Z,101597.13
2022-12-07T16:46:54.786Z,101598.09
2022-12-07T16:49:21.269Z,101599.94
2022-12-07T16:52:18.107Z,101604.28
2022-12-07T16:54:40.629Z,101603.53
2022-12-07T16:57:07.129Z,101604.47
2022-12-07T16:59:33.713Z,101596.72
2022-12-07T17:02:03.110Z,101597.59
2022-12-07T17:04:29.575Z,101587.22
2022-12-07T17:06:57.820Z,101591.66
2022-12-07T17:09:24.322Z,101591.69
2022-12-07T17:11:52.183Z,101586.50
2022-12-07T17:14:38.206Z,101597.03
2022-12-07T17:17:05.364Z,101585.75
2022-12-07T17:22:59.329Z,101582.50
2022-12-07T17:26:10.567Z,101588.69
2022-12-07T17:31:37.964Z,101581.84
2022-12-07T17:34:05.190Z,101579.31
2022-12-07T17:36:32.849Z,101578.44
2022-12-07T17:38:59.417Z,101584.56
2022-12-07T17:41:46.792Z,101589.00
2022-12-07T17:44:16.514Z,101591.66
2022-12-07T17:46:44.721Z,101595.25
2022-12-07T17:49:11.658Z,101591.00
2022-12-07T17:51:56.800Z,101592.91
2022-12-07T17:54:23.901Z,101590.41
2022-12-07T17:56:50.366Z,101590.50
2022-12-07T17:59:17.161Z,101580.13
2022-12-07T18:01:44.557Z,101570.69
2022-12-07T18:04:11.396Z,101568.97
2022-12-07T18:06:38.514Z,101555.03
2022-12-07T18:09:05.590Z,101546.28
2022-12-07T18:11:33.288Z,101547.06
2022-12-07T18:14:00.120Z,101536.53
2022-12-07T18:16:31.387Z,101534.78
2022-12-07T18:19:08.691Z,101536.47
2022-12-07T18:21:35.800Z,101534.69
2022-12-07T18:24:04.363Z,101530.31
2022-12-07T18:26:35.619Z,101533.72
2022-12-07T18:29:02.234Z,101527.56
2022-12-07T18:31:32.120Z,101526.72
2022-12-07T18:34:08.899Z,101525.78
2022-12-07T18:36:35.527Z,101526.59
2022-12-07T18:39:05.413Z,101521.38
2022-12-07T18:41:32.220Z,101518.75
2022-12-07T18:43:58.680Z,101525.66
2022-12-07T18:46:26.147Z,101527.44
2022-12-07T18:48:57.314Z,101524.81
2022-12-07T18:51:28.776Z,101528.34
2022-12-07T18:54:00.400Z,101528.38
2022-12-07T18:56:27.850Z,101535.34
2022-12-07T18:59:15.541Z,101537.13
2022-12-07T19:01:49.046Z,101532.78
2022-12-07T19:04:16.507Z,101539.75
2022-12-07T19:06:45.517Z,101530.94
2022-12-07T19:09:15.244Z,101533.63
2022-12-07T19:11:51.624Z,101537.03
2022-12-07T19:14:34.321Z,101531.81
2022-12-07T19:17:07.256Z,101532.59
2022-12-07T19:19:47.429Z,101538.72
2022-12-07T19:22:19.914Z,101523.94
2022-12-07T19:24:49.935Z,101528.19
2022-12-07T19:27:17.626Z,101530.81
2022-12-07T19:29:46.619Z,101521.13
2022-12-07T19:32:13.937Z,101524.69
2022-12-07T19:34:42.820Z,101531.56
2022-12-07T19:37:11.710Z,101524.56
2022-12-07T19:39:39.696Z,101525.41
2022-12-07T19:42:15.937Z,101519.34
2022-12-07T19:44:48.273Z,101511.50
2022-12-07T19:47:21.969Z,101508.88
2022-12-07T19:49:48.540Z,101502.75
2022-12-07T19:52:15.112Z,101494.91
2022-12-07T19:54:41.674Z,101484.53
2022-12-07T19:57:11.425Z,101487.06
2022-12-07T19:59:37.988Z,101484.47
2022-12-07T20:02:04.413Z,101484.47
2022-12-07T20:04:32.664Z,101486.19
2022-12-07T20:07:00.648Z,101482.69
2022-12-07T20:09:27.851Z,101476.63
2022-12-07T20:12:12.785Z,101477.47
2022-12-07T20:14:39.334Z,101474.00
2022-12-07T20:17:06.727Z,101478.44
2022-12-07T20:19:36.564Z,101477.66
2022-12-07T20:22:08.859Z,101476.84
2022-12-07T20:24:36.279Z,101467.22
2022-12-07T20:27:04.293Z,101467.19
2022-12-07T20:29:31.417Z,101467.19
2022-12-07T20:31:58.254Z,101457.63
2022-12-07T20:34:26.570Z,101447.97
2022-12-07T20:36:54.937Z,101452.34
2022-12-07T20:39:23.579Z,101442.75
2022-12-07T20:42:09.454Z,101436.69
2022-12-07T20:44:36.121Z,101438.38
2022-12-07T20:47:04.428Z,101439.28
2022-12-07T20:49:30.949Z,101430.59
2022-12-07T20:52:00.839Z,101434.91
2022-12-07T20:54:27.432Z,101429.75
2022-12-07T20:56:54.013Z,101430.59
2022-12-07T20:59:21.470Z,101435.84
2022-12-07T21:01:48.537Z,101432.41
2022-12-07T21:04:15.386Z,101431.50
2022-12-07T21:06:42.235Z,101434.97
2022-12-07T21:09:10.447Z,101423.66
2022-12-07T21:11:37.753Z,101422.78
2022-12-07T21:14:04.296Z,101426.28
2022-12-07T21:16:32.653Z,101423.66
2022-12-07T21:19:02.810Z,101426.34
2022-12-07T21:21:31.152Z,101422.84
2022-12-07T21:24:03.456Z,101417.69
2022-12-07T21:26:35.513Z,101422.06
2022-12-07T21:29:04.592Z,101417.69
2022-12-07T21:31:31.499Z,101413.44
2022-12-07T21:34:02.279Z,101403.94
2022-12-07T21:36:28.790Z,101403.94
2022-12-07T21:38:55.422Z,101398.78
2022-12-07T21:41:23.185Z,101403.09
2022-12-07T21:43:50.559Z,101390.94
2022-12-07T21:46:18.324Z,101391.91
2022-12-07T21:48:53.134Z,101397.97
2022-12-07T21:51:21.178Z,101389.34
2022-12-07T21:53:49.381Z,101387.63
2022-12-07T21:56:21.186Z,101387.63
2022-12-07T21:58:49.213Z,101382.41
2022-12-07T22:01:24.210Z,101382.41
2022-12-07T22:03:51.546Z,101379.84
2022-12-07T22:06:20.919Z,101379.88
2022-12-07T22:08:47.521Z,101374.72
2022-12-07T22:11:15.502Z,101376.50
2022-12-07T22:14:06.735Z,101375.59
2022-12-07T22:16:36.693Z,101367.91
2022-12-07T22:19:03.667Z,101379.25
2022-12-07T22:21:31.470Z,101369.72
2022-12-07T22:23:57.920Z,101374.09
2022-12-07T22:26:24.909Z,101375.88
2022-12-07T22:28:51.770Z,101375.06
2022-12-07T22:31:19.801Z,101371.53
2022-12-07T22:33:46.633Z,101367.28
2022-12-07T22:36:15.674Z,101361.19
2022-12-07T22:38:43.315Z,101361.19
2022-12-07T22:41:12.432Z,101359.44
2022-12-07T22:43:39.322Z,101355.13
2022-12-07T22:46:07.760Z,101354.25
2022-12-07T22:48:34.368Z,101354.31
2022-12-07T22:51:01.526Z,101349.97
2022-12-07T22:53:28.414Z,101339.53
2022-12-07T22:55:55.195Z,101341.31
2022-12-07T22:58:21.876Z,101327.41
2022-12-07T23:00:48.486Z,101323.88
2022-12-07T23:03:15.234Z,101325.69
2022-12-07T23:05:46.222Z,101324.00
2022-12-07T23:08:13.532Z,101320.47
2022-12-07T23:10:45.961Z,101317.97
2022-12-07T23:13:32.304Z,101322.34
2022-12-07T23:16:13.333Z,101310.13
2022-12-07T23:18:41.638Z,101313.66
2022-12-07T23:21:09.114Z,101296.28
2022-12-07T23:23:35.745Z,101295.41
2022-12-07T23:26:04.233Z,101297.19
2022-12-07T23:28:31.145Z,101294.63
2022-12-07T23:31:08.582Z,101296.38
2022-12-07T23:33:35.340Z,101291.22
2022-12-07T23:36:15.372Z,101293.88
2022-12-07T23:38:46.422Z,101293.00
2022-12-07T23:41:15.373Z,101285.16
2022-12-07T23:43:42.345Z,101286.06
2022-12-07T23:46:10.890Z,101287.78
2022-12-07T23:48:38.471Z,101275.56
2022-12-07T23:51:06.120Z,101271.19
2022-12-07T23:53:34.118Z,101278.22
2022-12-07T23:56:00.894Z,101279.13
2022-12-07T23:58:27.468Z,101275.69
